sensor_id;sensor_type;location;lat;lon;timestamp;P1;durP1;ratioP1;P2;durP2;ratioP2
30380;SDS011;17169;50.966;11.038;2023-10-08T00:02:14;11.48;;;3.85;;
30380;SDS011;17169;50.966;11.038;2023-10-08T00:05:24;10.05;;;3.20;;
30380;SDS011;17169;50.966;11.038;2023-10-08T00:08:26;12.38;;;3.88;;
30380;SDS011;17169;50.966;11.038;2023-10-08T00:11:30;7.03;;;3.22;;
30380;SDS011;17169;50.966;11.038;2023-10-08T00:14:32;6.75;;;3.40;;
30380;SDS011;17169;50.966;11.038;2023-10-08T00:17:44;14.93;;;3.53;;
30380;SDS011;17169;50.966;11.038;2023-10-08T00:20:48;13.50;;;4.47;;
30380;SDS011;17169;50.966;11.038;2023-10-08T00:23:55;10.52;;;3.38;;
30380;SDS011;17169;50.966;11.038;2023-10-08T00:26:58;13.68;;;4.25;;
30380;SDS011;17169;50.966;11.038;2023-10-08T00:30:04;9.68;;;4.13;;
30380;SDS011;17169;50.966;11.038;2023-10-08T00:33:18;12.30;;;4.32;;
30380;SDS011;17169;50.966;11.038;2023-10-08T00:36:21;12.98;;;3.65;;
30380;SDS011;17169;50.966;11.038;2023-10-08T00:39:24;9.52;;;4.93;;
30380;SDS011;17169;50.966;11.038;2023-10-08T00:42:27;9.05;;;3.70;;
30380;SDS011;17169;50.966;11.038;2023-10-08T00:45:30;11.82;;;3.80;;
30380;SDS011;17169;50.966;11.038;2023-10-08T00:48:33;9.52;;;3.70;;
30380;SDS011;17169;50.966;11.038;2023-10-08T00:51:37;10.90;;;4.50;;
30380;SDS011;17169;50.966;11.038;2023-10-08T00:54:42;8.77;;;3.35;;
30380;SDS011;17169;50.966;11.038;2023-10-08T00:57:55;12.68;;;4.85;;
30380;SDS011;17169;50.966;11.038;2023-10-08T01:01:08;11.60;;;3.58;;
30380;SDS011;17169;50.966;11.038;2023-10-08T01:04:15;14.07;;;3.95;;
30380;SDS011;17169;50.966;11.038;2023-10-08T01:07:19;11.75;;;3.90;;
30380;SDS011;17169;50.966;11.038;2023-10-08T01:10:24;11.07;;;3.55;;
30380;SDS011;17169;50.966;11.038;2023-10-08T01:13:29;9.05;;;3.67;;
30380;SDS011;17169;50.966;11.038;2023-10-08T01:16:36;9.02;;;3.83;;
30380;SDS011;17169;50.966;11.038;2023-10-08T01:19:40;10.82;;;3.22;;
30380;SDS011;17169;50.966;11.038;2023-10-08T01:22:47;10.15;;;3.33;;
30380;SDS011;17169;50.966;11.038;2023-10-08T01:25:50;8.00;;;3.55;;
30380;SDS011;17169;50.966;11.038;2023-10-08T01:28:58;14.18;;;3.80;;
30380;SDS011;17169;50.966;11.038;2023-10-08T01:32:03;12.93;;;4.90;;
30380;SDS011;17169;50.966;11.038;2023-10-08T01:35:11;9.18;;;3.30;;
30380;SDS011;17169;50.966;11.038;2023-10-08T01:38:24;11.40;;;3.67;;
30380;SDS011;17169;50.966;11.038;2023-10-08T01:41:28;7.63;;;3.20;;
30380;SDS011;17169;50.966;11.038;2023-10-08T01:44:31;8.98;;;3.60;;
30380;SDS011;17169;50.966;11.038;2023-10-08T01:47:34;11.55;;;3.33;;
30380;SDS011;17169;50.966;11.038;2023-10-08T01:50:37;12.48;;;4.35;;
30380;SDS011;17169;50.966;11.038;2023-10-08T01:53:40;11.60;;;4.05;;
30380;SDS011;17169;50.966;11.038;2023-10-08T01:56:43;9.52;;;3.45;;
30380;SDS011;17169;50.966;11.038;2023-10-08T01:59:45;13.73;;;4.25;;
30380;SDS011;17169;50.966;11.038;2023-10-08T02:02:49;9.57;;;3.30;;
30380;SDS011;17169;50.966;11.038;2023-10-08T02:05:52;7.55;;;3.60;;
30380;SDS011;17169;50.966;11.038;2023-10-08T02:09:00;9.73;;;3.78;;
30380;SDS011;17169;50.966;11.038;2023-10-08T02:12:08;10.05;;;3.38;;
30380;SDS011;17169;50.966;11.038;2023-10-08T02:15:10;13.98;;;4.07;;
30380;SDS011;17169;50.966;11.038;2023-10-08T02:18:13;8.88;;;4.28;;
30380;SDS011;17169;50.966;11.038;2023-10-08T02:21:15;8.88;;;3.92;;
30380;SDS011;17169;50.966;11.038;2023-10-08T02:24:19;12.90;;;3.70;;
30380;SDS011;17169;50.966;11.038;2023-10-08T02:27:24;10.73;;;3.58;;
30380;SDS011;17169;50.966;11.038;2023-10-08T02:30:27;10.30;;;3.45;;
30380;SDS011;17169;50.966;11.038;2023-10-08T02:33:30;9.68;;;4.25;;
30380;SDS011;17169;50.966;11.038;2023-10-08T02:36:32;10.77;;;3.85;;
30380;SDS011;17169;50.966;11.038;2023-10-08T02:39:38;8.90;;;3.67;;
30380;SDS011;17169;50.966;11.038;2023-10-08T02:42:41;11.30;;;3.63;;
30380;SDS011;17169;50.966;11.038;2023-10-08T02:45:44;7.97;;;3.38;;
30380;SDS011;17169;50.966;11.038;2023-10-08T02:48:49;11.45;;;3.65;;
30380;SDS011;17169;50.966;11.038;2023-10-08T02:51:53;10.02;;;3.38;;
30380;SDS011;17169;50.966;11.038;2023-10-08T02:55:00;7.35;;;3.67;;
30380;SDS011;17169;50.966;11.038;2023-10-08T02:58:02;8.95;;;3.85;;
30380;SDS011;17169;50.966;11.038;2023-10-08T03:01:05;10.48;;;3.55;;
30380;SDS011;17169;50.966;11.038;2023-10-08T03:04:12;9.20;;;3.67;;
30380;SDS011;17169;50.966;11.038;2023-10-08T03:07:19;10.88;;;4.15;;
30380;SDS011;17169;50.966;11.038;2023-10-08T03:10:34;12.10;;;3.70;;
30380;SDS011;17169;50.966;11.038;2023-10-08T03:13:36;10.82;;;3.58;;
30380;SDS011;17169;50.966;11.038;2023-10-08T03:16:39;10.18;;;3.53;;
30380;SDS011;17169;50.966;11.038;2023-10-08T03:19:41;8.60;;;3.60;;
30380;SDS011;17169;50.966;11.038;2023-10-08T03:22:45;8.40;;;2.97;;
30380;SDS011;17169;50.966;11.038;2023-10-08T03:25:51;11.90;;;4.05;;
30380;SDS011;17169;50.966;11.038;2023-10-08T03:29:04;9.90;;;3.42;;
30380;SDS011;17169;50.966;11.038;2023-10-08T03:32:09;8.60;;;3.40;;
30380;SDS011;17169;50.966;11.038;2023-10-08T03:35:16;9.95;;;3.85;;
30380;SDS011;17169;50.966;11.038;2023-10-08T03:38:28;15.38;;;3.88;;
30380;SDS011;17169;50.966;11.038;2023-10-08T03:41:46;8.48;;;3.85;;
30380;SDS011;17169;50.966;11.038;2023-10-08T03:45:00;11.55;;;3.95;;
30380;SDS011;17169;50.966;11.038;2023-10-08T03:48:10;8.93;;;4.35;;
30380;SDS011;17169;50.966;11.038;2023-10-08T03:51:15;10.38;;;4.32;;
30380;SDS011;17169;50.966;11.038;2023-10-08T03:54:21;14.68;;;3.90;;
30380;SDS011;17169;50.966;11.038;2023-10-08T03:57:31;11.23;;;4.38;;
30380;SDS011;17169;50.966;11.038;2023-10-08T04:00:42;15.00;;;4.05;;
30380;SDS011;17169;50.966;11.038;2023-10-08T04:03:46;14.05;;;4.10;;
30380;SDS011;17169;50.966;11.038;2023-10-08T04:06:59;13.77;;;5.25;;
30380;SDS011;17169;50.966;11.038;2023-10-08T04:10:28;12.25;;;4.13;;
30380;SDS011;17169;50.966;11.038;2023-10-08T04:14:08;11.90;;;3.70;;
30380;SDS011;17169;50.966;11.038;2023-10-08T04:17:10;14.13;;;4.55;;
30380;SDS011;17169;50.966;11.038;2023-10-08T04:20:21;12.00;;;3.38;;
30380;SDS011;17169;50.966;11.038;2023-10-08T04:23:33;6.97;;;2.22;;
30380;SDS011;17169;50.966;11.038;2023-10-08T04:26:38;3.60;;;1.33;;
30380;SDS011;17169;50.966;11.038;2023-10-08T04:29:41;2.20;;;1.10;;
30380;SDS011;17169;50.966;11.038;2023-10-08T04:32:50;1.98;;;0.77;;
30380;SDS011;17169;50.966;11.038;2023-10-08T04:35:53;5.40;;;3.17;;
30380;SDS011;17169;50.966;11.038;2023-10-08T04:38:56;1.17;;;0.73;;
30380;SDS011;17169;50.966;11.038;2023-10-08T04:42:06;1.70;;;0.90;;
30380;SDS011;17169;50.966;11.038;2023-10-08T04:45:11;1.30;;;0.80;;
30380;SDS011;17169;50.966;11.038;2023-10-08T04:48:14;1.75;;;0.93;;
30380;SDS011;17169;50.966;11.038;2023-10-08T04:51:20;1.73;;;0.80;;
30380;SDS011;17169;50.966;11.038;2023-10-08T04:54:24;1.27;;;0.68;;
30380;SDS011;17169;50.966;11.038;2023-10-08T04:57:31;0.93;;;0.50;;
30380;SDS011;17169;50.966;11.038;2023-10-08T05:00:34;0.87;;;0.40;;
30380;SDS011;17169;50.966;11.038;2023-10-08T05:03:52;0.50;;;0.40;;
30380;SDS011;17169;50.966;11.038;2023-10-08T05:07:08;0.73;;;0.50;;
30380;SDS011;17169;50.966;11.038;2023-10-08T05:10:21;0.63;;;0.50;;
30380;SDS011;17169;50.966;11.038;2023-10-08T05:13:46;1.75;;;0.75;;
30380;SDS011;17169;50.966;11.038;2023-10-08T05:17:05;0.30;;;0.30;;
30380;SDS011;17169;50.966;11.038;2023-10-08T05:20:10;2.63;;;0.50;;
30380;SDS011;17169;50.966;11.038;2023-10-08T05:23:30;0.82;;;0.50;;
30380;SDS011;17169;50.966;11.038;2023-10-08T05:27:09;1.50;;;0.55;;
30380;SDS011;17169;50.966;11.038;2023-10-08T05:30:39;0.30;;;0.30;;
30380;SDS011;17169;50.966;11.038;2023-10-08T05:33:53;1.13;;;0.60;;
30380;SDS011;17169;50.966;11.038;2023-10-08T05:37:15;6.28;;;2.80;;
30380;SDS011;17169;50.966;11.038;2023-10-08T05:40:31;1.23;;;0.60;;
30380;SDS011;17169;50.966;11.038;2023-10-08T05:44:05;0.40;;;0.40;;
30380;SDS011;17169;50.966;11.038;2023-10-08T05:47:25;0.85;;;0.60;;
30380;SDS011;17169;50.966;11.038;2023-10-08T05:50:39;1.10;;;0.60;;
30380;SDS011;17169;50.966;11.038;2023-10-08T05:53:44;0.82;;;0.50;;
30380;SDS011;17169;50.966;11.038;2023-10-08T05:56:45;1.38;;;0.70;;
30380;SDS011;17169;50.966;11.038;2023-10-08T06:00:07;3.33;;;1.60;;
30380;SDS011;17169;50.966;11.038;2023-10-08T06:03:43;1.02;;;0.80;;
30380;SDS011;17169;50.966;11.038;2023-10-08T06:07:00;5.07;;;1.00;;
30380;SDS011;17169;50.966;11.038;2023-10-08T06:10:13;0.57;;;0.50;;
30380;SDS011;17169;50.966;11.038;2023-10-08T06:13:34;0.30;;;0.30;;
30380;SDS011;17169;50.966;11.038;2023-10-08T06:16:52;0.90;;;0.50;;
30380;SDS011;17169;50.966;11.038;2023-10-08T06:20:15;2.03;;;0.50;;
30380;SDS011;17169;50.966;11.038;2023-10-08T06:23:17;0.45;;;0.35;;
30380;SDS011;17169;50.966;11.038;2023-10-08T06:26:20;0.77;;;0.45;;
30380;SDS011;17169;50.966;11.038;2023-10-08T06:29:25;0.60;;;0.43;;
30380;SDS011;17169;50.966;11.038;2023-10-08T06:32:31;0.40;;;0.40;;
30380;SDS011;17169;50.966;11.038;2023-10-08T06:35:35;3.03;;;0.80;;
30380;SDS011;17169;50.966;11.038;2023-10-08T06:38:38;1.42;;;0.65;;
30380;SDS011;17169;50.966;11.038;2023-10-08T06:41:41;0.82;;;0.60;;
30380;SDS011;17169;50.966;11.038;2023-10-08T06:44:43;0.70;;;0.57;;
30380;SDS011;17169;50.966;11.038;2023-10-08T06:50:52;1.00;;;0.52;;
30380;SDS011;17169;50.966;11.038;2023-10-08T06:53:57;3.35;;;0.57;;
30380;SDS011;17169;50.966;11.038;2023-10-08T06:57:03;1.15;;;0.50;;
30380;SDS011;17169;50.966;11.038;2023-10-08T07:00:06;0.82;;;0.70;;
30380;SDS011;17169;50.966;11.038;2023-10-08T07:03:13;1.88;;;1.13;;
30380;SDS011;17169;50.966;11.038;2023-10-08T07:06:18;0.35;;;0.35;;
30380;SDS011;17169;50.966;11.038;2023-10-08T07:09:31;0.65;;;0.50;;
30380;SDS011;17169;50.966;11.038;2023-10-08T07:12:36;0.90;;;0.68;;
30380;SDS011;17169;50.966;11.038;2023-10-08T07:15:40;0.93;;;0.47;;
30380;SDS011;17169;50.966;11.038;2023-10-08T07:18:45;0.70;;;0.45;;
30380;SDS011;17169;50.966;11.038;2023-10-08T07:21:53;2.05;;;0.63;;
30380;SDS011;17169;50.966;11.038;2023-10-08T07:25:04;1.48;;;0.60;;
30380;SDS011;17169;50.966;11.038;2023-10-08T07:28:09;1.52;;;0.60;;
30380;SDS011;17169;50.966;11.038;2023-10-08T07:31:13;0.98;;;0.60;;
30380;SDS011;17169;50.966;11.038;2023-10-08T07:34:16;5.20;;;1.50;;
30380;SDS011;17169;50.966;11.038;2023-10-08T07:37:27;2.53;;;1.00;;
30380;SDS011;17169;50.966;11.038;2023-10-08T07:40:29;2.05;;;0.80;;
30380;SDS011;17169;50.966;11.038;2023-10-08T07:43:34;4.38;;;1.40;;
30380;SDS011;17169;50.966;11.038;2023-10-08T07:46:36;1.55;;;0.90;;
30380;SDS011;17169;50.966;11.038;2023-10-08T07:49:38;1.77;;;0.90;;
30380;SDS011;17169;50.966;11.038;2023-10-08T07:52:46;2.63;;;0.88;;
30380;SDS011;17169;50.966;11.038;2023-10-08T07:55:48;1.88;;;0.90;;
30380;SDS011;17169;50.966;11.038;2023-10-08T07:58:51;3.78;;;0.77;;
30380;SDS011;17169;50.966;11.038;2023-10-08T08:01:56;1.48;;;0.90;;
30380;SDS011;17169;50.966;11.038;2023-10-08T08:05:00;3.37;;;1.10;;
30380;SDS011;17169;50.966;11.038;2023-10-08T08:08:06;2.17;;;1.08;;
30380;SDS011;17169;50.966;11.038;2023-10-08T08:11:08;2.47;;;0.88;;
30380;SDS011;17169;50.966;11.038;2023-10-08T08:14:14;4.05;;;0.90;;
30380;SDS011;17169;50.966;11.038;2023-10-08T08:17:17;4.65;;;1.67;;
30380;SDS011;17169;50.966;11.038;2023-10-08T08:20:20;4.25;;;1.60;;
30380;SDS011;17169;50.966;11.038;2023-10-08T08:23:32;3.10;;;1.20;;
30380;SDS011;17169;50.966;11.038;2023-10-08T08:26:34;3.10;;;1.30;;
30380;SDS011;17169;50.966;11.038;2023-10-08T08:29:45;3.40;;;1.40;;
30380;SDS011;17169;50.966;11.038;2023-10-08T08:32:49;3.75;;;1.55;;
30380;SDS011;17169;50.966;11.038;2023-10-08T08:35:58;2.30;;;1.35;;
30380;SDS011;17169;50.966;11.038;2023-10-08T08:39:03;3.13;;;1.60;;
30380;SDS011;17169;50.966;11.038;2023-10-08T08:42:09;3.13;;;1.20;;
30380;SDS011;17169;50.966;11.038;2023-10-08T08:45:12;3.35;;;1.20;;
30380;SDS011;17169;50.966;11.038;2023-10-08T08:48:18;4.38;;;1.10;;
30380;SDS011;17169;50.966;11.038;2023-10-08T08:51:21;2.15;;;1.20;;
30380;SDS011;17169;50.966;11.038;2023-10-08T08:54:26;2.55;;;1.00;;
30380;SDS011;17169;50.966;11.038;2023-10-08T08:57:31;2.58;;;1.20;;
30380;SDS011;17169;50.966;11.038;2023-10-08T09:00:34;2.47;;;1.00;;
30380;SDS011;17169;50.966;11.038;2023-10-08T09:03:38;1.98;;;1.00;;
30380;SDS011;17169;50.966;11.038;2023-10-08T09:06:41;1.67;;;1.10;;
30380;SDS011;17169;50.966;11.038;2023-10-08T09:09:47;2.92;;;1.00;;
30380;SDS011;17169;50.966;11.038;2023-10-08T09:12:50;2.80;;;1.00;;
30380;SDS011;17169;50.966;11.038;2023-10-08T09:15:54;1.90;;;1.00;;
30380;SDS011;17169;50.966;11.038;2023-10-08T09:18:58;3.70;;;1.60;;
30380;SDS011;17169;50.966;11.038;2023-10-08T09:22:02;3.92;;;1.77;;
30380;SDS011;17169;50.966;11.038;2023-10-08T09:25:07;6.25;;;1.35;;
30380;SDS011;17169;50.966;11.038;2023-10-08T09:28:10;4.28;;;1.23;;
30380;SDS011;17169;50.966;11.038;2023-10-08T09:31:13;2.75;;;1.15;;
30380;SDS011;17169;50.966;11.038;2023-10-08T09:34:18;2.22;;;0.90;;
30380;SDS011;17169;50.966;11.038;2023-10-08T09:37:20;4.57;;;1.30;;
30380;SDS011;17169;50.966;11.038;2023-10-08T09:40:24;2.28;;;1.02;;
30380;SDS011;17169;50.966;11.038;2023-10-08T09:43:27;2.38;;;1.10;;
30380;SDS011;17169;50.966;11.038;2023-10-08T09:46:29;2.75;;;1.00;;
30380;SDS011;17169;50.966;11.038;2023-10-08T09:49:38;3.10;;;1.13;;
30380;SDS011;17169;50.966;11.038;2023-10-08T09:52:45;3.03;;;1.33;;
30380;SDS011;17169;50.966;11.038;2023-10-08T09:55:59;2.25;;;1.08;;
30380;SDS011;17169;50.966;11.038;2023-10-08T09:59:06;3.58;;;1.15;;
30380;SDS011;17169;50.966;11.038;2023-10-08T10:02:09;2.80;;;1.15;;
30380;SDS011;17169;50.966;11.038;2023-10-08T10:05:12;5.43;;;1.42;;
30380;SDS011;17169;50.966;11.038;2023-10-08T10:08:21;5.22;;;1.40;;
30380;SDS011;17169;50.966;11.038;2023-10-08T10:11:28;4.13;;;1.83;;
30380;SDS011;17169;50.966;11.038;2023-10-08T10:14:37;4.80;;;1.43;;
30380;SDS011;17169;50.966;11.038;2023-10-08T10:17:43;3.78;;;1.30;;
30380;SDS011;17169;50.966;11.038;2023-10-08T10:20:51;3.90;;;1.70;;
30380;SDS011;17169;50.966;11.038;2023-10-08T10:23:55;5.90;;;1.50;;
30380;SDS011;17169;50.966;11.038;2023-10-08T10:27:10;4.28;;;1.90;;
30380;SDS011;17169;50.966;11.038;2023-10-08T10:30:15;6.70;;;3.50;;
30380;SDS011;17169;50.966;11.038;2023-10-08T10:33:19;4.00;;;2.33;;
30380;SDS011;17169;50.966;11.038;2023-10-08T10:36:21;5.28;;;2.25;;
30380;SDS011;17169;50.966;11.038;2023-10-08T10:39:24;5.45;;;2.80;;
30380;SDS011;17169;50.966;11.038;2023-10-08T10:42:30;4.60;;;1.80;;
30380;SDS011;17169;50.966;11.038;2023-10-08T10:45:39;4.60;;;1.95;;
30380;SDS011;17169;50.966;11.038;2023-10-08T10:48:42;4.15;;;1.42;;
30380;SDS011;17169;50.966;11.038;2023-10-08T10:51:57;7.05;;;1.20;;
30380;SDS011;17169;50.966;11.038;2023-10-08T10:55:01;2.10;;;1.05;;
30380;SDS011;17169;50.966;11.038;2023-10-08T10:58:20;3.53;;;1.30;;
30380;SDS011;17169;50.966;11.038;2023-10-08T11:01:26;2.58;;;1.10;;
30380;SDS011;17169;50.966;11.038;2023-10-08T11:04:29;3.85;;;1.20;;
30380;SDS011;17169;50.966;11.038;2023-10-08T11:07:32;3.95;;;1.27;;
30380;SDS011;17169;50.966;11.038;2023-10-08T11:10:35;4.13;;;1.40;;
30380;SDS011;17169;50.966;11.038;2023-10-08T11:13:40;2.78;;;1.15;;
30380;SDS011;17169;50.966;11.038;2023-10-08T11:16:42;3.00;;;1.08;;
30380;SDS011;17169;50.966;11.038;2023-10-08T11:19:45;2.95;;;1.30;;
30380;SDS011;17169;50.966;11.038;2023-10-08T11:22:47;2.80;;;1.23;;
30380;SDS011;17169;50.966;11.038;2023-10-08T11:25:52;4.15;;;1.30;;
30380;SDS011;17169;50.966;11.038;2023-10-08T11:28:56;2.78;;;1.20;;
30380;SDS011;17169;50.966;11.038;2023-10-08T11:32:01;6.10;;;2.90;;
30380;SDS011;17169;50.966;11.038;2023-10-08T11:35:09;2.92;;;1.20;;
30380;SDS011;17169;50.966;11.038;2023-10-08T11:38:17;1.77;;;1.00;;
30380;SDS011;17169;50.966;11.038;2023-10-08T11:44:29;3.40;;;1.70;;
30380;SDS011;17169;50.966;11.038;2023-10-08T11:47:34;2.80;;;1.25;;
30380;SDS011;17169;50.966;11.038;2023-10-08T11:50:36;4.38;;;1.30;;
30380;SDS011;17169;50.966;11.038;2023-10-08T11:53:39;2.72;;;0.82;;
30380;SDS011;17169;50.966;11.038;2023-10-08T11:56:41;4.85;;;1.42;;
30380;SDS011;17169;50.966;11.038;2023-10-08T11:59:46;3.58;;;1.27;;
30380;SDS011;17169;50.966;11.038;2023-10-08T12:02:48;4.43;;;1.83;;
30380;SDS011;17169;50.966;11.038;2023-10-08T12:05:53;3.83;;;1.70;;
30380;SDS011;17169;50.966;11.038;2023-10-08T12:08:59;6.13;;;1.73;;
30380;SDS011;17169;50.966;11.038;2023-10-08T12:12:12;3.47;;;1.35;;
30380;SDS011;17169;50.966;11.038;2023-10-08T12:15:17;3.13;;;1.40;;
30380;SDS011;17169;50.966;11.038;2023-10-08T12:18:21;7.40;;;3.85;;
30380;SDS011;17169;50.966;11.038;2023-10-08T12:21:26;3.00;;;1.20;;
30380;SDS011;17169;50.966;11.038;2023-10-08T12:24:30;3.22;;;1.58;;
30380;SDS011;17169;50.966;11.038;2023-10-08T12:27:32;4.28;;;2.03;;
30380;SDS011;17169;50.966;11.038;2023-10-08T12:30:36;3.35;;;1.17;;
30380;SDS011;17169;50.966;11.038;2023-10-08T12:33:42;3.45;;;1.30;;
30380;SDS011;17169;50.966;11.038;2023-10-08T12:36:47;2.45;;;1.15;;
30380;SDS011;17169;50.966;11.038;2023-10-08T12:39:51;2.67;;;1.20;;
30380;SDS011;17169;50.966;11.038;2023-10-08T12:43:00;1.92;;;1.00;;
30380;SDS011;17169;50.966;11.038;2023-10-08T12:46:06;3.17;;;1.17;;
30380;SDS011;17169;50.966;11.038;2023-10-08T12:49:11;4.22;;;1.38;;
30380;SDS011;17169;50.966;11.038;2023-10-08T12:52:13;2.53;;;0.95;;
30380;SDS011;17169;50.966;11.038;2023-10-08T12:55:16;3.15;;;1.00;;
30380;SDS011;17169;50.966;11.038;2023-10-08T12:58:19;2.42;;;1.08;;
30380;SDS011;17169;50.966;11.038;2023-10-08T13:01:27;3.60;;;1.40;;
30380;SDS011;17169;50.966;11.038;2023-10-08T13:04:30;2.25;;;1.10;;
30380;SDS011;17169;50.966;11.038;2023-10-08T13:10:42;2.90;;;1.30;;
30380;SDS011;17169;50.966;11.038;2023-10-08T13:13:44;2.40;;;1.10;;
30380;SDS011;17169;50.966;11.038;2023-10-08T13:16:49;3.00;;;1.30;;
30380;SDS011;17169;50.966;11.038;2023-10-08T13:19:54;2.70;;;1.00;;
30380;SDS011;17169;50.966;11.038;2023-10-08T13:22:56;2.75;;;1.00;;
30380;SDS011;17169;50.966;11.038;2023-10-08T13:25:59;3.78;;;1.00;;
30380;SDS011;17169;50.966;11.038;2023-10-08T13:29:04;2.10;;;1.05;;
30380;SDS011;17169;50.966;11.038;2023-10-08T13:32:11;2.10;;;0.95;;
30380;SDS011;17169;50.966;11.038;2023-10-08T13:35:17;2.72;;;0.88;;
30380;SDS011;17169;50.966;11.038;2023-10-08T13:38:20;3.03;;;1.40;;
30380;SDS011;17169;50.966;11.038;2023-10-08T13:41:23;3.45;;;1.20;;
30380;SDS011;17169;50.966;11.038;2023-10-08T13:44:29;3.95;;;1.02;;
30380;SDS011;17169;50.966;11.038;2023-10-08T13:47:33;5.57;;;1.50;;
30380;SDS011;17169;50.966;11.038;2023-10-08T13:50:36;3.83;;;1.50;;
30380;SDS011;17169;50.966;11.038;2023-10-08T13:53:38;6.18;;;1.75;;
30380;SDS011;17169;50.966;11.038;2023-10-08T13:56:41;2.28;;;1.05;;
30380;SDS011;17169;50.966;11.038;2023-10-08T13:59:48;4.55;;;1.30;;
30380;SDS011;17169;50.966;11.038;2023-10-08T14:02:52;4.32;;;1.30;;
30380;SDS011;17169;50.966;11.038;2023-10-08T14:05:55;2.72;;;1.13;;
30380;SDS011;17169;50.966;11.038;2023-10-08T14:09:00;4.15;;;1.10;;
30380;SDS011;17169;50.966;11.038;2023-10-08T14:12:08;5.55;;;1.40;;
30380;SDS011;17169;50.966;11.038;2023-10-08T14:15:11;2.10;;;1.10;;
30380;SDS011;17169;50.966;11.038;2023-10-08T14:18:17;2.60;;;1.35;;
30380;SDS011;17169;50.966;11.038;2023-10-08T14:21:26;2.65;;;1.33;;
30380;SDS011;17169;50.966;11.038;2023-10-08T14:24:31;4.10;;;1.10;;
30380;SDS011;17169;50.966;11.038;2023-10-08T14:27:38;5.70;;;1.10;;
30380;SDS011;17169;50.966;11.038;2023-10-08T14:30:41;2.75;;;1.30;;
30380;SDS011;17169;50.966;11.038;2023-10-08T14:33:45;4.05;;;1.02;;
30380;SDS011;17169;50.966;11.038;2023-10-08T14:36:59;4.57;;;1.50;;
30380;SDS011;17169;50.966;11.038;2023-10-08T14:40:19;4.30;;;1.40;;
30380;SDS011;17169;50.966;11.038;2023-10-08T14:43:39;3.58;;;1.10;;
30380;SDS011;17169;50.966;11.038;2023-10-08T14:46:42;2.78;;;1.27;;
30380;SDS011;17169;50.966;11.038;2023-10-08T14:49:46;2.97;;;1.30;;
30380;SDS011;17169;50.966;11.038;2023-10-08T14:52:49;2.53;;;1.30;;
30380;SDS011;17169;50.966;11.038;2023-10-08T14:55:51;4.95;;;2.00;;
30380;SDS011;17169;50.966;11.038;2023-10-08T14:58:54;4.97;;;1.52;;
30380;SDS011;17169;50.966;11.038;2023-10-08T15:01:56;3.70;;;1.63;;
30380;SDS011;17169;50.966;11.038;2023-10-08T15:05:00;4.20;;;2.10;;
30380;SDS011;17169;50.966;11.038;2023-10-08T15:08:03;2.42;;;1.30;;
30380;SDS011;17169;50.966;11.038;2023-10-08T15:11:10;2.95;;;1.20;;
30380;SDS011;17169;50.966;11.038;2023-10-08T15:14:12;4.28;;;1.23;;
30380;SDS011;17169;50.966;11.038;2023-10-08T15:17:16;2.85;;;1.08;;
30380;SDS011;17169;50.966;11.038;2023-10-08T15:20:20;3.80;;;1.30;;
30380;SDS011;17169;50.966;11.038;2023-10-08T15:26:27;3.42;;;1.42;;
30380;SDS011;17169;50.966;11.038;2023-10-08T15:29:32;3.40;;;1.47;;
30380;SDS011;17169;50.966;11.038;2023-10-08T15:32:34;3.58;;;1.55;;
30380;SDS011;17169;50.966;11.038;2023-10-08T15:35:39;2.60;;;1.13;;
30380;SDS011;17169;50.966;11.038;2023-10-08T15:38:41;4.95;;;1.35;;
30380;SDS011;17169;50.966;11.038;2023-10-08T15:41:44;3.25;;;1.55;;
30380;SDS011;17169;50.966;11.038;2023-10-08T15:44:46;4.32;;;1.70;;
30380;SDS011;17169;50.966;11.038;2023-10-08T15:47:49;7.40;;;1.80;;
30380;SDS011;17169;50.966;11.038;2023-10-08T15:50:53;4.75;;;1.70;;
30380;SDS011;17169;50.966;11.038;2023-10-08T15:53:55;4.43;;;1.45;;
30380;SDS011;17169;50.966;11.038;2023-10-08T16:00:07;3.20;;;1.30;;
30380;SDS011;17169;50.966;11.038;2023-10-08T16:03:10;3.65;;;1.60;;
30380;SDS011;17169;50.966;11.038;2023-10-08T16:06:14;4.50;;;2.13;;
30380;SDS011;17169;50.966;11.038;2023-10-08T16:09:17;4.95;;;2.40;;
30380;SDS011;17169;50.966;11.038;2023-10-08T16:15:24;6.55;;;2.10;;
30380;SDS011;17169;50.966;11.038;2023-10-08T16:18:26;3.28;;;1.65;;
30380;SDS011;17169;50.966;11.038;2023-10-08T16:21:30;5.78;;;1.80;;
30380;SDS011;17169;50.966;11.038;2023-10-08T16:24:33;6.35;;;2.38;;
30380;SDS011;17169;50.966;11.038;2023-10-08T16:27:35;4.20;;;1.80;;
30380;SDS011;17169;50.966;11.038;2023-10-08T16:30:38;4.45;;;1.98;;
30380;SDS011;17169;50.966;11.038;2023-10-08T16:33:44;4.32;;;1.95;;
30380;SDS011;17169;50.966;11.038;2023-10-08T16:36:48;4.93;;;1.80;;
30380;SDS011;17169;50.966;11.038;2023-10-08T16:39:50;5.35;;;2.33;;
30380;SDS011;17169;50.966;11.038;2023-10-08T16:42:52;6.85;;;1.90;;
30380;SDS011;17169;50.966;11.038;2023-10-08T16:45:55;5.78;;;2.30;;
30380;SDS011;17169;50.966;11.038;2023-10-08T16:48:59;5.30;;;2.17;;
30380;SDS011;17169;50.966;11.038;2023-10-08T16:52:03;5.78;;;2.30;;
30380;SDS011;17169;50.966;11.038;2023-10-08T16:55:05;5.60;;;2.50;;
30380;SDS011;17169;50.966;11.038;2023-10-08T16:58:08;4.88;;;2.10;;
30380;SDS011;17169;50.966;11.038;2023-10-08T17:01:11;3.70;;;1.90;;
30380;SDS011;17169;50.966;11.038;2023-10-08T17:04:14;5.25;;;1.80;;
30380;SDS011;17169;50.966;11.038;2023-10-08T17:07:18;5.10;;;2.20;;
30380;SDS011;17169;50.966;11.038;2023-10-08T17:10:23;5.28;;;2.05;;
30380;SDS011;17169;50.966;11.038;2023-10-08T17:13:29;5.80;;;2.47;;
30380;SDS011;17169;50.966;11.038;2023-10-08T17:16:32;7.63;;;2.83;;
30380;SDS011;17169;50.966;11.038;2023-10-08T17:19:34;6.60;;;2.88;;
30380;SDS011;17169;50.966;11.038;2023-10-08T17:22:38;6.50;;;2.70;;
30380;SDS011;17169;50.966;11.038;2023-10-08T17:25:41;6.70;;;3.42;;
30380;SDS011;17169;50.966;11.038;2023-10-08T17:28:44;11.23;;;4.18;;
30380;SDS011;17169;50.966;11.038;2023-10-08T17:31:46;9.55;;;4.07;;
30380;SDS011;17169;50.966;11.038;2023-10-08T17:34:50;8.98;;;4.20;;
30380;SDS011;17169;50.966;11.038;2023-10-08T17:37:54;7.65;;;3.42;;
30380;SDS011;17169;50.966;11.038;2023-10-08T17:40:57;7.32;;;3.42;;
30380;SDS011;17169;50.966;11.038;2023-10-08T17:44:00;7.35;;;4.03;;
30380;SDS011;17169;50.966;11.038;2023-10-08T17:47:03;7.03;;;3.42;;
30380;SDS011;17169;50.966;11.038;2023-10-08T17:50:07;8.73;;;3.20;;
30380;SDS011;17169;50.966;11.038;2023-10-08T17:53:11;7.82;;;3.03;;
30380;SDS011;17169;50.966;11.038;2023-10-08T17:56:15;8.30;;;3.47;;
30380;SDS011;17169;50.966;11.038;2023-10-08T17:59:19;9.18;;;3.70;;
30380;SDS011;17169;50.966;11.038;2023-10-08T18:02:23;11.50;;;3.93;;
30380;SDS011;17169;50.966;11.038;2023-10-08T18:05:26;7.82;;;3.80;;
30380;SDS011;17169;50.966;11.038;2023-10-08T18:08:33;12.38;;;3.33;;
30380;SDS011;17169;50.966;11.038;2023-10-08T18:11:36;7.30;;;3.13;;
30380;SDS011;17169;50.966;11.038;2023-10-08T18:14:42;10.10;;;3.08;;
30380;SDS011;17169;50.966;11.038;2023-10-08T18:17:44;7.80;;;2.83;;
30380;SDS011;17169;50.966;11.038;2023-10-08T18:20:48;5.35;;;2.50;;
30380;SDS011;17169;50.966;11.038;2023-10-08T18:23:54;5.28;;;2.22;;
30380;SDS011;17169;50.966;11.038;2023-10-08T18:26:57;6.40;;;2.67;;
30380;SDS011;17169;50.966;11.038;2023-10-08T18:30:01;6.00;;;2.70;;
30380;SDS011;17169;50.966;11.038;2023-10-08T18:33:06;4.65;;;1.95;;
30380;SDS011;17169;50.966;11.038;2023-10-08T18:36:10;7.63;;;3.50;;
30380;SDS011;17169;50.966;11.038;2023-10-08T18:39:14;8.05;;;4.07;;
30380;SDS011;17169;50.966;11.038;2023-10-08T18:42:18;7.45;;;3.95;;